Time;durP1;ratioP1;P1;durP2;ratioP2;P2;SDS_P1;SDS_P2;PMS_P1;PMS_P2;Temp;Humidity;BMP_temperature;BMP_pressure;BME280_temperature;BME280_humidity;BME280_pressure;Samples;Min_cycle;Max_cycle;Signal;HPM_P1;HPM_P2
2022/06/01 00:00:10;;;;;;;363.93;230.50;;;;;;;20.72;72.67;99602.91;341427;28;1185;-83
2022/06/01 00:00:21;;;;;;;364.02;233.95;;;;;;;20.73;72.74;99596.63;343113;28;1535;-83
2022/06/01 00:00:31;;;;;;;364.60;235.43;;;;;;;20.71;72.59;99599.41;342388;28;1556;-83
2022/06/01 00:00:42;;;;;;;365.17;235.53;;;;;;;20.71;72.04;99594.06;342583;28;794;-82
2022/06/01 00:00:52;;;;;;;363.42;232.93;;;;;;;20.75;72.35;99600.84;341313;29;1684;-82
2022/06/01 00:01:03;;;;;;;361.90;233.70;;;;;;;20.72;72.38;99603.75;341217;29;850;-82
2022/06/01 00:01:13;;;;;;;361.05;231.23;;;;;;;20.72;72.58;99601.09;339957;28;1504;-82
2022/06/01 00:01:24;;;;;;;360.23;230.48;;;;;;;20.74;72.41;99604.47;342473;28;1457;-82
2022/06/01 00:01:34;;;;;;;359.90;226.57;;;;;;;20.72;72.65;99601.09;342950;28;1304;-82
2022/06/01 00:01:45;;;;;;;360.05;228.13;;;;;;;20.75;72.82;99611.47;345199;28;1494;-82
2022/06/01 00:01:56;;;;;;;361.73;227.65;;;;;;;20.70;72.14;99592.38;345124;28;1226;-83
2022/06/01 00:02:08;;;;;;;364.03;232.17;;;;;;;20.70;72.63;99596.88;340948;28;2799;-83
2022/06/01 00:02:18;;;;;;;361.52;228.70;;;;;;;20.72;72.48;99605.56;340587;28;1499;-82
2022/06/01 00:02:29;;;;;;;363.70;233.43;;;;;;;20.67;72.55;99595.31;343991;28;1203;-82
2022/06/01 00:02:39;;;;;;;364.57;229.20;;;;;;;20.67;72.58;99597.97;343489;28;1663;-82
2022/06/01 00:02:50;;;;;;;368.83;232.98;;;;;;;20.68;72.71;99604.97;340109;28;1511;-82
2022/06/01 00:03:00;;;;;;;365.20;229.07;;;;;;;20.70;72.47;99597.72;341848;28;1405;-82
2022/06/01 00:03:10;;;;;;;367.27;233.90;;;;;;;20.69;72.52;99606.66;341455;28;1423;-82
2022/06/01 00:03:23;;;;;;;367.73;233.00;;;;;;;20.73;72.49;99607.25;342663;28;1173;-82
2022/06/01 00:03:35;;;;;;;367.17;229.57;;;;;;;20.71;72.52;99607.38;340555;29;1476;-82
2022/06/01 00:03:46;;;;;;;361.85;223.43;;;;;;;20.71;72.37;99610.03;340123;28;1559;-82
2022/06/01 00:03:56;;;;;;;359.80;222.93;;;;;;;20.68;72.50;99599.66;342536;28;1273;-82
2022/06/01 00:04:06;;;;;;;361.98;228.15;;;;;;;20.71;72.49;99604.72;341190;29;1511;-82
2022/06/01 00:04:19;;;;;;;364.13;235.57;;;;;;;20.70;72.49;99603.03;340290;28;1169;-82
2022/06/01 00:04:29;;;;;;;364.15;233.40;;;;;;;20.66;72.50;99601.59;341784;28;1571;-82
2022/06/01 00:04:40;;;;;;;360.23;227.80;;;;;;;20.66;72.35;99606.06;343932;28;1357;-82
2022/06/01 00:04:50;;;;;;;360.20;223.90;;;;;;;20.65;72.45;99604.38;341120;28;1349;-83
2022/06/01 00:05:01;;;;;;;361.10;225.67;;;;;;;20.63;72.73;99599.19;343287;28;1527;-83
2022/06/01 00:05:11;;;;;;;362.97;227.97;;;;;;;20.61;72.94;99598.47;345332;28;1352;-83
2022/06/01 00:05:22;;;;;;;363.90;229.07;;;;;;;20.63;72.60;99607.16;346463;28;1435;-82
2022/06/01 00:05:32;;;;;;;363.13;229.40;;;;;;;20.61;73.04;99602.94;343825;28;1255;-82
2022/06/01 00:05:43;;;;;;;363.17;226.97;;;;;;;20.63;72.89;99607.16;340065;29;1464;-82
2022/06/01 00:05:53;;;;;;;364.05;228.90;;;;;;;20.61;72.95;99603.78;342554;28;1234;-83
2022/06/01 00:06:04;;;;;;;364.35;229.82;;;;;;;20.56;72.88;99598.84;340268;29;1451;-83
2022/06/01 00:06:14;;;;;;;366.73;233.37;;;;;;;20.55;73.12;99601.63;341144;28;1610;-83
2022/06/01 00:06:26;;;;;;;364.60;227.93;;;;;;;20.58;73.06;99604.03;341352;28;1363;-83
2022/06/01 00:06:36;;;;;;;363.75;226.35;;;;;;;20.53;73.07;99600.91;339892;29;1696;-83
2022/06/01 00:06:47;;;;;;;361.33;226.37;;;;;;;20.55;73.23;99598.97;342888;28;1369;-83
2022/06/01 00:06:57;;;;;;;362.45;231.63;;;;;;;20.56;73.20;99604.16;344023;28;1311;-83
2022/06/01 00:07:07;;;;;;;363.53;234.87;;;;;;;20.53;73.35;99600.91;341149;29;1257;-82
2022/06/01 00:07:19;;;;;;;361.92;233.13;;;;;;;20.58;73.19;99604.88;339843;29;1264;-82
2022/06/01 00:07:29;;;;;;;363.52;231.85;;;;;;;20.59;73.36;99603.06;341475;28;1420;-82
2022/06/01 00:07:40;;;;;;;362.13;228.45;;;;;;;20.59;73.28;99605.72;342517;28;1495;-82
2022/06/01 00:07:50;;;;;;;361.37;230.97;;;;;;;20.60;73.30;99602.09;340170;29;1432;-82
2022/06/01 00:08:01;;;;;;;363.45;234.05;;;;;;;20.60;73.02;99604.75;342848;28;1436;-82
2022/06/01 00:08:11;;;;;;;363.67;236.27;;;;;;;20.60;73.51;99596.78;345315;28;1315;-82
2022/06/01 00:08:22;;;;;;;363.43;237.20;;;;;;;20.58;72.98;99596.06;342387;28;1539;-82
2022/06/01 00:08:32;;;;;;;360.08;237.50;;;;;;;20.61;73.07;99603.78;343413;28;1526;-82
2022/06/01 00:08:43;;;;;;;358.25;233.77;;;;;;;20.61;73.00;99602.94;341784;28;1294;-82
2022/06/01 00:08:53;;;;;;;360.77;233.30;;;;;;;20.60;73.12;99607.41;341264;28;1162;-82
2022/06/01 00:09:04;;;;;;;363.38;231.48;;;;;;;20.63;72.76;99593.88;339202;29;1469;-82
2022/06/01 00:09:14;;;;;;;366.17;236.33;;;;;;;20.63;72.88;99601.84;339973;29;1472;-82
2022/06/01 00:09:24;;;;;;;365.63;233.73;;;;;;;20.67;72.61;99605.94;341087;29;1554;-82
2022/06/01 00:09:35;;;;;;;365.27;234.80;;;;;;;20.66;72.80;99606.91;342736;28;1185;-82
2022/06/01 00:09:45;;;;;;;362.17;230.13;;;;;;;20.61;72.45;99592.31;343003;28;1273;-82
2022/06/01 00:09:56;;;;;;;361.77;230.37;;;;;;;20.63;73.01;99595.69;339962;29;1428;-82
2022/06/01 00:10:07;;;;;;;363.80;231.30;;;;;;;20.64;72.93;99597.38;342360;28;1208;-82
2022/06/01 00:10:17;;;;;;;367.13;232.57;;;;;;;20.65;72.93;99599.91;343651;28;1380;-82
2022/06/01 00:10:28;;;;;;;366.30;232.75;;;;;;;20.65;72.83;99594.59;339880;29;1460;-82
2022/06/01 00:10:38;;;;;;;366.08;232.32;;;;;;;20.65;72.86;99593.75;342607;28;1257;-82
2022/06/01 00:10:49;;;;;;;366.43;234.57;;;;;;;20.67;72.89;99592.66;340602;28;1531;-83
2022/06/01 00:11:00;;;;;;;365.10;232.52;;;;;;;20.67;72.78;99597.13;342610;28;1472;-83
2022/06/01 00:11:10;;;;;;;364.40;229.77;;;;;;;20.62;72.84;99591.34;340209;29;1672;-83
2022/06/01 00:11:21;;;;;;;365.17;231.07;;;;;;;20.67;72.66;99597.97;340003;28;2967;-83
2022/06/01 00:11:32;;;;;;;362.63;229.98;;;;;;;20.65;72.63;99599.91;341862;28;2787;-83
2022/06/01 00:11:42;;;;;;;366.77;234.07;;;;;;;20.64;72.66;99603.53;340331;28;1727;-82
2022/06/01 00:11:53;;;;;;;365.42;230.82;;;;;;;20.63;73.08;99599.19;339319;29;2881;-82
2022/06/01 00:12:05;;;;;;;364.37;229.37;;;;;;;20.65;72.41;99602.56;343345;28;1328;-82
2022/06/01 00:12:15;;;;;;;358.25;225.27;;;;;;;20.64;73.06;99598.22;342399;28;1455;-82
2022/06/01 00:12:26;;;;;;;359.20;225.70;;;;;;;20.64;72.61;99600.88;344152;28;1234;-82
2022/06/01 00:12:36;;;;;;;359.80;226.40;;;;;;;20.64;72.78;99603.53;341390;28;1427;-82
2022/06/01 00:12:46;;;;;;;361.83;229.30;;;;;;;20.65;72.93;99604.38;337549;29;1576;-82
2022/06/01 00:12:57;;;;;;;361.60;229.45;;;;;;;20.64;72.65;99598.22;339903;29;1233;-82
2022/06/01 00:13:07;;;;;;;361.43;227.13;;;;;;;20.62;72.76;99602.81;341136;29;1491;-82
2022/06/01 00:13:19;;;;;;;361.15;226.07;;;;;;;20.61;72.88;99600.28;342095;28;1526;-82
2022/06/01 00:13:30;;;;;;;360.17;222.48;;;;;;;20.61;72.70;99605.59;340253;29;1512;-82
2022/06/01 00:13:40;;;;;;;361.83;223.13;;;;;;;20.60;72.62;99596.78;342699;28;1209;-82
2022/06/01 00:13:51;;;;;;;358.73;217.77;;;;;;;20.61;72.62;99605.59;340419;28;1656;-83
2022/06/01 00:14:01;;;;;;;360.13;219.87;;;;;;;20.59;72.72;99601.25;342962;28;1297;-83
2022/06/01 00:14:11;;;;;;;359.95;226.07;;;;;;;20.61;72.78;99602.94;341085;29;1236;-83
2022/06/01 00:14:22;;;;;;;361.47;230.33;;;;;;;20.59;72.66;99593.28;341295;28;1192;-83
2022/06/01 00:14:33;;;;;;;360.93;228.77;;;;;;;20.57;72.57;99603.19;344424;28;1372;-82
2022/06/01 00:14:43;;;;;;;359.83;224.48;;;;;;;20.56;72.74;99598.00;344421;28;1497;-83
2022/06/01 00:14:53;;;;;;;360.77;224.60;;;;;;;20.56;72.78;99598.84;341053;28;1175;-83
2022/06/01 00:15:04;;;;;;;363.53;231.67;;;;;;;20.58;72.49;99596.06;342597;28;1208;-82
2022/06/01 00:15:16;;;;;;;363.90;233.20;;;;;;;20.56;72.49;99590.03;342377;28;1903;-82
2022/06/01 00:15:26;;;;;;;360.38;226.50;;;;;;;20.60;72.48;99607.41;341350;29;929;-82
2022/06/01 00:15:37;;;;;;;361.23;228.48;;;;;;;20.61;72.62;99594.97;343608;28;1523;-83
2022/06/01 00:15:47;;;;;;;361.42;228.63;;;;;;;20.59;72.70;99592.44;342274;28;1292;-83
2022/06/01 00:15:58;;;;;;;364.60;232.70;;;;;;;20.58;72.78;99593.41;339998;29;1326;-83
2022/06/01 00:16:08;;;;;;;359.80;223.57;;;;;;;20.58;72.55;99596.06;343102;28;1571;-82
2022/06/01 00:16:19;;;;;;;362.07;228.37;;;;;;;20.59;72.72;99601.25;346610;28;1267;-82
2022/06/01 00:16:30;;;;;;;363.67;231.15;;;;;;;20.63;72.69;99601.00;341383;29;1502;-82
2022/06/01 00:16:42;;;;;;;363.23;231.18;;;;;;;20.64;72.54;99602.69;344247;28;959;-83
2022/06/01 00:16:55;;;;;;;358.35;222.18;;;;;;;20.62;72.35;99594.84;341235;28;1491;-83
2022/06/01 00:17:05;;;;;;;356.58;221.15;;;;;;;20.60;72.94;99596.78;342347;28;1471;-83
2022/06/01 00:17:16;;;;;;;356.37;222.00;;;;;;;20.62;72.42;99605.47;344973;28;1490;-83
2022/06/01 00:17:26;;;;;;;358.52;228.73;;;;;;;20.60;72.65;99591.47;343954;28;1427;-83
2022/06/01 00:17:37;;;;;;;361.07;231.77;;;;;;;20.61;72.52;99593.16;343010;28;1451;-82
2022/06/01 00:17:47;;;;;;;360.13;229.70;;;;;;;20.61;72.39;99598.47;344012;28;1563;-83
2022/06/01 00:17:58;;;;;;;359.17;223.33;;;;;;;20.59;72.68;99595.09;341292;28;1212;-83
2022/06/01 00:18:09;;;;;;;359.73;221.32;;;;;;;20.60;72.38;99596.78;342549;28;1349;-83
2022/06/01 00:18:20;;;;;;;362.13;224.13;;;;;;;20.61;72.08;99597.63;341167;28;1229;-83
2022/06/01 00:18:30;;;;;;;363.45;227.20;;;;;;;20.63;72.32;99601.00;341132;28;1472;-83
2022/06/01 00:18:41;;;;;;;362.23;230.73;;;;;;;20.65;72.08;99610.53;342572;28;1242;-83
2022/06/01 00:18:51;;;;;;;361.13;231.53;;;;;;;20.64;72.13;99606.19;340273;28;1373;-83
2022/06/01 00:19:02;;;;;;;360.50;231.32;;;;;;;20.65;72.38;99599.91;342407;28;1326;-83
2022/06/01 00:19:12;;;;;;;360.87;229.43;;;;;;;20.64;72.23;99600.88;340761;28;1228;-83
2022/06/01 00:19:23;;;;;;;362.55;229.77;;;;;;;20.63;72.08;99612.47;343597;28;1328;-83
2022/06/01 00:19:33;;;;;;;365.13;231.33;;;;;;;20.66;72.39;99603.41;342157;28;1340;-83
2022/06/01 00:19:44;;;;;;;366.00;228.68;;;;;;;20.64;72.02;99600.03;340144;28;1511;-83
2022/06/01 00:19:54;;;;;;;364.43;227.30;;;;;;;20.62;72.16;99610.78;343752;28;1396;-83
2022/06/01 00:20:05;;;;;;;362.53;226.63;;;;;;;20.62;71.89;99602.81;344897;28;1561;-83
2022/06/01 00:20:15;;;;;;;363.20;228.13;;;;;;;20.61;72.29;99598.47;343875;28;1023;-83
2022/06/01 00:20:26;;;;;;;362.27;226.43;;;;;;;20.64;72.16;99608.84;342772;28;3690;-83
2022/06/01 00:20:37;;;;;;;363.05;228.98;;;;;;;20.62;72.07;99605.47;341129;28;3149;-83
2022/06/01 00:20:48;;;;;;;364.92;231.07;;;;;;;20.60;72.17;99607.41;342376;28;1531;-83
2022/06/01 00:20:59;;;;;;;365.27;232.82;;;;;;;20.61;71.88;99608.25;343512;28;1429;-82
2022/06/01 00:21:09;;;;;;;364.40;233.53;;;;;;;20.63;72.09;99601.84;340932;29;3189;-82
2022/06/01 00:21:19;;;;;;;359.92;228.50;;;;;;;20.59;71.86;99603.91;342464;28;1448;-82
2022/06/01 00:21:30;;;;;;;359.77;227.07;;;;;;;20.62;72.06;99610.78;342806;28;1261;-82
2022/06/01 00:22:12;;;;;;;354.38;226.15;;;;;;;20.60;71.99;99604.75;341600;28;1404;-82
2022/06/01 00:22:22;;;;;;;354.17;225.52;;;;;;;20.59;72.00;99605.72;340171;29;1472;-82
2022/06/01 00:22:33;;;;;;;358.57;228.00;;;;;;;20.57;71.74;99597.03;341331;29;1484;-82
2022/06/01 00:22:44;;;;;;;360.55;227.32;;;;;;;20.58;72.01;99599.56;341886;28;1344;-82
2022/06/01 00:22:56;;;;;;;363.20;229.20;;;;;;;20.59;71.65;99603.06;340806;28;1456;-82
2022/06/01 00:23:06;;;;;;;362.30;227.73;;;;;;;20.62;71.60;99605.47;342655;28;1357;-82
2022/06/01 00:23:17;;;;;;;361.93;228.13;;;;;;;20.59;71.40;99601.25;342472;28;1412;-82
2022/06/01 00:23:28;;;;;;;363.08;230.73;;;;;;;20.58;71.46;99604.88;339962;29;1320;-82
2022/06/01 00:23:39;;;;;;;363.20;231.35;;;;;;;20.61;71.25;99609.09;343267;28;1523;-82
2022/06/01 00:23:49;;;;;;;364.50;232.90;;;;;;;20.57;71.24;99602.34;341298;29;1100;-82
2022/06/01 00:23:59;;;;;;;367.23;235.00;;;;;;;20.56;71.30;99611.28;342551;28;1260;-82
2022/06/01 00:24:10;;;;;;;368.08;235.25;;;;;;;20.52;71.13;99604.53;341374;28;2684;-82
2022/06/01 00:24:20;;;;;;;367.33;236.47;;;;;;;20.56;71.02;99604.16;342020;28;2894;-82
2022/06/01 00:24:31;;;;;;;367.20;237.23;;;;;;;20.52;70.99;99597.41;342673;28;1390;-82
2022/06/01 00:24:42;;;;;;;370.60;235.70;;;;;;;20.56;70.97;99603.31;341629;29;1917;-82
2022/06/01 00:24:53;;;;;;;368.75;233.35;;;;;;;20.52;70.89;99593.91;342659;28;3231;-82
2022/06/01 00:25:04;;;;;;;362.63;231.50;;;;;;;20.54;71.03;99597.28;343875;28;794;-82
2022/06/01 00:25:15;;;;;;;361.35;232.20;;;;;;;20.53;71.23;99601.75;339965;29;1292;-82
2022/06/01 00:25:26;;;;;;;361.48;233.07;;;;;;;20.57;70.72;99607.66;341251;29;1507;-82
2022/06/01 00:25:36;;;;;;;363.07;235.93;;;;;;;20.57;71.02;99600.53;342632;28;1530;-82
2022/06/01 00:25:47;;;;;;;359.92;233.38;;;;;;;20.59;71.01;99597.75;341375;28;1468;-82
2022/06/01 00:25:58;;;;;;;358.93;231.40;;;;;;;20.58;71.06;99604.03;340678;28;1306;-82
2022/06/01 00:26:08;;;;;;;362.50;231.68;;;;;;;20.58;70.87;99604.88;340823;29;1368;-82
2022/06/01 00:26:19;;;;;;;365.27;232.87;;;;;;;20.56;71.08;99598.00;342517;28;1266;-82
2022/06/01 00:26:29;;;;;;;364.90;231.47;;;;;;;20.57;70.63;99602.34;338681;29;1293;-82
2022/06/01 00:26:40;;;;;;;359.63;227.02;;;;;;;20.58;70.73;99609.34;339999;29;1488;-82
2022/06/01 00:26:50;;;;;;;363.07;229.97;;;;;;;20.57;70.50;99602.34;341347;29;1375;-82
2022/06/01 00:27:01;;;;;;;365.42;233.70;;;;;;;20.54;70.28;99597.28;344372;28;1263;-82
2022/06/01 00:27:11;;;;;;;370.03;239.40;;;;;;;20.54;70.11;99599.94;345382;28;1198;-82
2022/06/01 00:27:22;;;;;;;367.95;239.02;;;;;;;20.52;69.98;99593.91;343466;28;1199;-82
2022/06/01 00:27:32;;;;;;;364.50;235.75;;;;;;;20.53;70.14;99600.91;340362;28;1494;-82
2022/06/01 00:27:43;;;;;;;363.47;234.43;;;;;;;20.53;70.07;99600.91;343948;28;1224;-82
2022/06/01 00:27:53;;;;;;;363.10;234.10;;;;;;;20.52;70.29;99609.84;342556;28;1475;-82
2022/06/01 00:28:05;;;;;;;364.67;233.63;;;;;;;20.50;70.12;99602.00;340327;28;1515;-82
2022/06/01 00:28:15;;;;;;;363.95;232.15;;;;;;;20.51;69.94;99597.53;341045;29;1491;-82
2022/06/01 00:28:26;;;;;;;363.93;231.50;;;;;;;20.51;70.12;99598.38;343916;28;1277;-82
2022/06/01 00:28:36;;;;;;;364.40;232.55;;;;;;;20.50;69.97;99602.00;342647;28;1451;-82
2022/06/01 00:28:47;;;;;;;364.97;232.23;;;;;;;20.50;69.95;99601.16;341128;28;1456;-82
2022/06/01 00:28:57;;;;;;;363.05;233.43;;;;;;;20.50;70.05;99601.16;342661;28;1348;-82
2022/06/01 00:29:08;;;;;;;362.33;233.30;;;;;;;20.51;69.81;99602.84;340241;28;1432;-82
2022/06/01 00:29:18;;;;;;;361.00;231.27;;;;;;;20.53;69.89;99600.91;342644;28;1593;-81
2022/06/01 00:29:28;;;;;;;362.27;229.67;;;;;;;20.55;69.66;99604.28;342777;28;1187;-81
2022/06/01 00:29:39;;;;;;;361.77;231.53;;;;;;;20.52;69.65;99596.56;341758;28;1666;-81
2022/06/01 00:29:49;;;;;;;363.25;229.57;;;;;;;20.54;69.93;99605.25;342706;28;1608;-82
2022/06/01 00:30:00;;;;;;;363.05;230.13;;;;;;;20.53;70.01;99600.91;343586;28;2635;-82
2022/06/01 00:30:12;;;;;;;362.77;226.52;;;;;;;20.52;69.81;99596.56;339914;28;3066;-82
2022/06/01 00:30:23;;;;;;;364.60;231.88;;;;;;;20.56;69.60;99608.63;343334;28;1296;-82
2022/06/01 00:30:33;;;;;;;364.20;228.03;;;;;;;20.56;70.03;99603.31;342591;28;1340;-82
2022/06/01 00:30:44;;;;;;;364.42;229.98;;;;;;;20.56;69.72;99604.16;340990;29;1302;-82
2022/06/01 00:30:54;;;;;;;360.10;225.63;;;;;;;20.56;70.05;99598.00;342751;28;1312;-82
2022/06/01 00:31:05;;;;;;;361.25;227.63;;;;;;;20.51;69.87;99601.03;340777;28;1398;-82
2022/06/01 00:31:15;;;;;;;363.10;229.30;;;;;;;20.53;70.07;99601.75;341365;28;1256;-82
2022/06/01 00:31:26;;;;;;;363.95;229.57;;;;;;;20.51;70.02;99602.84;341216;28;1335;-82
2022/06/01 00:31:36;;;;;;;360.53;226.47;;;;;;;20.56;69.70;99611.28;342409;28;1443;-82
2022/06/01 00:31:46;;;;;;;360.25;224.05;;;;;;;20.52;69.65;99602.72;343307;28;1196;-82
2022/06/01 00:31:57;;;;;;;360.30;221.73;;;;;;;20.54;69.58;99599.94;339785;29;1032;-82
2022/06/01 00:32:08;;;;;;;359.47;221.57;;;;;;;20.53;69.93;99600.91;342545;28;1508;-82
2022/06/01 00:32:19;;;;;;;357.10;221.75;;;;;;;20.50;69.56;99595.84;344532;28;1387;-82
2022/06/01 00:32:29;;;;;;;357.03;226.40;;;;;;;20.54;69.93;99602.59;341673;29;933;-82
2022/06/01 00:32:40;;;;;;;359.33;229.73;;;;;;;20.52;69.77;99604.53;341463;28;1367;-82
2022/06/01 00:32:50;;;;;;;362.20;232.57;;;;;;;20.55;69.40;99593.66;341752;28;1476;-82
2022/06/01 00:33:01;;;;;;;362.67;234.23;;;;;;;20.51;69.74;99597.53;341196;28;1191;-82
2022/06/01 00:33:12;;;;;;;363.77;235.57;;;;;;;20.49;69.65;99599.47;340369;29;1324;-82
2022/06/01 00:33:22;;;;;;;363.27;236.73;;;;;;;20.52;69.63;99599.22;341092;29;1563;-82
2022/06/01 00:33:32;;;;;;;363.10;231.13;;;;;;;20.52;69.67;99602.72;342149;28;1556;-82
2022/06/01 00:33:43;;;;;;;363.57;227.10;;;;;;;20.54;69.71;99602.59;341398;28;1322;-82
2022/06/01 00:33:53;;;;;;;360.70;218.73;;;;;;;20.55;69.68;99610.44;340438;29;1596;-82
2022/06/01 00:34:04;;;;;;;362.87;224.43;;;;;;;20.52;69.57;99605.38;340972;28;1447;-82
2022/06/01 00:34:14;;;;;;;363.42;224.45;;;;;;;20.52;69.65;99600.06;344205;28;1414;-82
2022/06/01 00:34:25;;;;;;;366.07;227.37;;;;;;;20.56;69.57;99605.97;343111;28;1163;-82
2022/06/01 00:34:35;;;;;;;365.88;228.82;;;;;;;20.55;69.38;99609.59;341835;28;1464;-83
2022/06/01 00:34:45;;;;;;;368.77;234.47;;;;;;;20.57;69.63;99607.66;342321;28;1573;-83
2022/06/01 00:34:56;;;;;;;370.02;238.18;;;;;;;20.58;69.38;99604.88;342897;28;1538;-83
2022/06/01 00:35:08;;;;;;;370.77;236.30;;;;;;;20.58;69.50;99604.03;344098;28;1446;-82
2022/06/01 00:35:19;;;;;;;365.77;234.38;;;;;;;20.56;69.48;99604.16;341832;28;1923;-82
2022/06/01 00:35:30;;;;;;;362.20;232.30;;;;;;;20.56;69.52;99606.81;342690;28;1472;-82
2022/06/01 00:35:40;;;;;;;359.33;232.47;;;;;;;20.55;69.65;99609.59;341410;28;1208;-82
2022/06/01 00:35:51;;;;;;;356.55;229.93;;;;;;;20.53;69.87;99606.22;342185;28;1558;-82
2022/06/01 00:36:03;;;;;;;358.40;232.40;;;;;;;20.52;69.52;99609.84;344940;28;1279;-82
2022/06/01 00:36:13;;;;;;;357.98;232.07;;;;;;;20.47;69.67;99594.28;342586;28;893;-82
2022/06/01 00:36:24;;;;;;;358.83;229.27;;;;;;;20.53;69.75;99600.91;341102;29;1459;-82
2022/06/01 00:36:34;;;;;;;360.30;230.53;;;;;;;20.52;69.56;99604.53;343671;28;1499;-82
2022/06/01 00:36:45;;;;;;;360.73;231.68;;;;;;;20.52;69.55;99604.53;340118;29;1397;-82
2022/06/01 00:36:55;;;;;;;364.27;233.07;;;;;;;20.51;69.32;99602.84;339870;29;1484;-82
2022/06/01 00:37:05;;;;;;;360.53;225.83;;;;;;;20.49;69.77;99599.47;342595;28;1689;-82
2022/06/01 00:37:17;;;;;;;359.40;224.75;;;;;;;20.50;69.58;99598.50;341300;28;1371;-82
2022/06/01 00:37:28;;;;;;;358.83;224.52;;;;;;;20.55;69.39;99604.28;341578;28;1386;-82
2022/06/01 00:37:38;;;;;;;362.40;228.40;;;;;;;20.54;69.29;99613.22;344641;28;1455;-82
2022/06/01 00:37:50;;;;;;;360.83;224.88;;;;;;;20.51;69.39;99597.53;344071;28;1514;-82
2022/06/01 00:38:00;;;;;;;362.88;226.50;;;;;;;20.56;69.70;99606.81;342624;28;1405;-82
2022/06/01 00:38:11;;;;;;;361.43;225.37;;;;;;;20.55;69.23;99604.28;344885;28;1479;-82
2022/06/01 00:38:21;;;;;;;362.60;228.13;;;;;;;20.57;69.35;99605.00;341307;28;1412;-82
2022/06/01 00:38:32;;;;;;;362.70;228.77;;;;;;;20.58;69.37;99612.84;342800;28;1301;-82
2022/06/01 00:38:42;;;;;;;365.90;231.17;;;;;;;20.58;69.41;99602.22;342277;28;1523;-82
2022/06/01 00:38:52;;;;;;;367.27;231.90;;;;;;;20.60;69.25;99604.75;338932;29;1500;-82
2022/06/01 00:39:03;;;;;;;369.20;233.33;;;;;;;20.57;68.86;99603.19;341169;29;1472;-82
2022/06/01 00:39:13;;;;;;;367.77;232.40;;;;;;;20.57;68.83;99607.66;341390;28;1934;-82
2022/06/01 00:39:24;;;;;;;367.10;231.33;;;;;;;20.57;68.81;99605.00;341558;28;2752;-82
2022/06/01 00:39:35;;;;;;;365.83;230.20;;;;;;;20.58;69.05;99612.84;341211;28;1539;-82
2022/06/01 00:39:45;;;;;;;366.63;231.25;;;;;;;20.55;68.61;99601.63;341714;28;1554;-82
2022/06/01 00:39:56;;;;;;;368.17;229.40;;;;;;;20.56;68.55;99605.97;342248;28;1476;-82
2022/06/01 00:40:07;;;;;;;365.20;226.07;;;;;;;20.55;68.86;99610.44;343115;28;1103;-82
2022/06/01 00:40:19;;;;;;;362.30;225.90;;;;;;;20.52;68.21;99604.53;344780;28;1514;-82
2022/06/01 00:40:30;;;;;;;362.88;230.43;;;;;;;20.49;68.38;99604.78;342891;28;1056;-82
2022/06/01 00:40:40;;;;;;;366.13;232.70;;;;;;;20.49;68.63;99602.97;342105;28;1471;-82
2022/06/01 00:40:50;;;;;;;367.23;232.70;;;;;;;20.49;68.50;99595.00;341534;28;1532;-82
2022/06/01 00:41:01;;;;;;;365.67;233.05;;;;;;;20.51;68.69;99602.84;343732;28;1218;-82
2022/06/01 00:41:11;;;;;;;361.70;231.40;;;;;;;20.52;68.61;99609.84;341166;28;1515;-82
2022/06/01 00:41:22;;;;;;;361.27;232.40;;;;;;;20.52;68.42;99604.53;339836;29;1236;-83
2022/06/01 00:41:32;;;;;;;361.38;233.02;;;;;;;20.51;68.49;99598.38;339921;29;1704;-83
2022/06/01 00:41:42;;;;;;;361.63;232.10;;;;;;;20.53;68.70;99603.56;342417;28;1468;-83
2022/06/01 00:41:53;;;;;;;360.20;227.35;;;;;;;20.50;68.38;99606.47;340784;29;1573;-83
2022/06/01 00:42:18;;;;;;;361.83;226.17;;;;;;;20.49;68.47;99602.13;341447;28;1231;-83
2022/06/01 00:42:29;;;;;;;349.92;221.90;;;;;;;20.49;68.39;99610.09;342270;28;1293;-83
2022/06/01 00:42:41;;;;;;;352.45;222.95;;;;;;;20.44;68.51;99599.00;341109;28;1459;-83
2022/06/01 00:42:53;;;;;;;359.15;225.15;;;;;;;20.47;68.40;99604.91;341675;29;941;-83
2022/06/01 00:43:36;;;;;;;358.83;223.82;;;;;;;20.47;68.15;99601.41;340105;29;1480;-83
2022/06/01 00:43:47;;;;;;;355.40;223.07;;;;;;;20.45;68.64;99598.88;339876;29;1407;-83
2022/06/01 00:43:57;;;;;;;358.58;228.43;;;;;;;20.43;68.42;99599.97;341077;29;836;-83
2022/06/01 00:44:08;;;;;;;362.30;224.03;;;;;;;20.45;68.14;99603.34;341562;28;1519;-83
2022/06/01 00:44:18;;;;;;;363.20;223.07;;;;;;;20.39;68.43;99588.75;342956;28;1204;-82
2022/06/01 00:44:28;;;;;;;365.83;226.80;;;;;;;20.46;68.51;99605.88;344021;28;1622;-82
2022/06/01 00:44:40;;;;;;;365.40;233.40;;;;;;;20.44;68.12;99591.03;342538;28;1204;-82
2022/06/01 00:44:51;;;;;;;364.58;231.00;;;;;;;20.48;68.15;99597.78;341277;28;1283;-82
2022/06/01 00:45:03;;;;;;;362.67;230.77;;;;;;;20.44;68.37;99596.34;341929;28;1531;-82
2022/06/01 00:45:15;;;;;;;364.77;233.80;;;;;;;20.44;68.15;99593.69;343897;28;1519;-83
2022/06/01 00:45:27;;;;;;;362.92;234.75;;;;;;;20.40;68.07;99601.06;344002;28;1360;-83
2022/06/01 00:45:37;;;;;;;359.83;224.88;;;;;;;20.36;68.37;99598.78;345623;28;1346;-83
2022/06/01 00:45:48;;;;;;;360.00;221.67;;;;;;;20.35;68.27;99591.78;339713;29;1230;-83
2022/06/01 00:45:58;;;;;;;360.92;223.38;;;;;;;20.34;68.09;99595.41;342697;28;1234;-82
2022/06/01 00:46:09;;;;;;;362.90;228.07;;;;;;;20.37;68.31;99597.78;341327;28;1492;-83
2022/06/01 00:46:19;;;;;;;362.15;227.93;;;;;;;20.38;68.21;99597.69;340265;29;905;-83
2022/06/01 00:46:30;;;;;;;365.20;231.00;;;;;;;20.37;68.31;99595.13;342063;28;1500;-83
2022/06/01 00:46:40;;;;;;;363.00;232.32;;;;;;;20.41;68.35;99596.59;342517;28;1491;-84
2022/06/01 00:46:51;;;;;;;359.65;231.95;;;;;;;20.38;68.11;99591.53;341460;28;1385;-82
2022/06/01 00:47:01;;;;;;;359.17;234.43;;;;;;;20.41;68.07;99593.94;342494;28;1198;-82
2022/06/01 00:47:12;;;;;;;360.83;234.00;;;;;;;20.42;67.92;99600.94;342506;28;1463;-82
2022/06/01 00:47:24;;;;;;;358.83;227.20;;;;;;;20.45;67.90;99592.72;340217;28;1504;-83
2022/06/01 00:47:35;;;;;;;355.27;221.45;;;;;;;20.43;68.31;99600.81;341324;29;1355;-83
2022/06/01 00:47:46;;;;;;;355.30;225.98;;;;;;;20.42;67.81;99595.63;341719;28;1315;-82
2022/06/01 00:47:56;;;;;;;355.80;230.75;;;;;;;20.41;68.23;99591.28;345070;28;1206;-82
2022/06/01 00:48:07;;;;;;;355.40;231.67;;;;;;;20.43;67.97;99597.31;341969;28;1496;-82
2022/06/01 00:48:19;;;;;;;355.48;229.85;;;;;;;20.43;68.18;99590.19;339921;29;1261;-82
2022/06/01 00:48:30;;;;;;;358.30;232.30;;;;;;;20.42;68.21;99592.97;342729;28;2557;-82
2022/06/01 00:48:43;;;;;;;360.67;232.38;;;;;;;20.42;68.24;99592.97;342449;28;1901;-82
2022/06/01 00:48:54;;;;;;;363.38;232.88;;;;;;;20.40;68.12;99590.44;338681;29;1939;-82
2022/06/01 00:49:12;;;;;;;367.23;237.45;;;;;;;20.39;68.02;99593.22;344003;28;2991;-82
2022/06/01 00:49:23;;;;;;;362.10;231.13;;;;;;;20.35;68.25;99589.09;343811;28;1502;-82
2022/06/01 00:49:34;;;;;;;360.17;226.48;;;;;;;20.31;68.39;99587.66;339781;28;1228;-82
2022/06/01 00:49:47;;;;;;;363.50;231.03;;;;;;;20.36;68.38;99590.81;340889;28;1586;-82
2022/06/01 00:50:12;;;;;;;365.60;229.93;;;;;;;20.36;68.11;99588.16;342583;28;1475;-82
2022/06/01 00:50:27;;;;;;;361.42;227.73;;;;;;;20.39;68.34;99593.22;342774;28;1606;-81
2022/06/01 00:50:39;;;;;;;360.27;228.05;;;;;;;20.37;68.35;99590.66;340279;29;1293;-81
2022/06/01 00:50:50;;;;;;;358.90;227.77;;;;;;;20.33;67.98;99583.91;341033;28;1490;-81
2022/06/01 00:51:00;;;;;;;354.88;225.90;;;;;;;20.35;68.29;99599.75;345111;28;1243;-81